Time;durP1;ratioP1;P1;durP2;ratioP2;P2;SDS_P1;SDS_P2;PMS_P1;PMS_P2;Temp;Humidity;BMP_temperature;BMP_pressure;BME280_temperature;BME280_humidity;BME280_pressure;Samples;Min_cycle;Max_cycle;Signal;HPM_P1;HPM_P2
2022/09/10 00:02:06;;;;;;;6.70;1.10;;;;;;;22.84;42.23;100859.56;16127311;19;130222;-59
2022/09/10 00:07:30;;;;;;;6.65;1.25;;;;;;;22.85;41.90;100858.44;16127970;19;129702;-59
2022/09/10 00:12:54;;;;;;;5.53;1.10;;;;;;;22.85;42.35;100855.66;16126614;19;129031;-58
2022/09/10 00:18:19;;;;;;;2.65;0.98;;;;;;;22.84;42.39;100854.78;16122566;19;130323;-59
2022/09/10 00:23:44;;;;;;;3.80;1.40;;;;;;;22.83;42.31;100846.72;16125767;19;129748;-59
2022/09/10 00:29:09;;;;;;;4.35;1.00;;;;;;;22.83;42.32;100849.50;16121323;19;129663;-58
2022/09/10 00:34:31;;;;;;;2.53;0.90;;;;;;;22.83;42.11;100849.50;16126892;19;129920;-60
2022/09/10 00:39:54;;;;;;;2.83;0.93;;;;;;;22.81;42.58;100860.94;16120364;19;129568;-59
2022/09/10 00:45:22;;;;;;;4.80;1.20;;;;;;;22.81;42.26;100855.38;16124324;19;129542;-59
2022/09/10 00:50:47;;;;;;;3.67;0.90;;;;;;;22.80;42.06;100858.41;16126137;19;130120;-59
2022/09/10 00:56:09;;;;;;;3.90;1.23;;;;;;;22.80;42.14;100858.41;16123740;19;129562;-59
2022/09/10 01:01:33;;;;;;;3.05;1.00;;;;;;;22.80;42.40;100862.06;16123149;19;130177;-59
2022/09/10 01:06:55;;;;;;;3.05;1.40;;;;;;;22.79;42.38;100865.97;16125199;19;129911;-66
2022/09/10 01:12:41;;;;;;;4.63;1.10;;;;;;;22.80;42.19;100864.00;16122357;19;129258;-69
2022/09/10 01:18:46;;;;;;;5.28;1.20;;;;;;;22.79;42.29;100863.19;16119162;19;130151;-65
2022/09/10 01:24:45;;;;;;;8.32;1.08;;;;;;;22.77;42.23;100859.00;16116797;19;129721;-63
2022/09/10 01:30:30;;;;;;;5.18;1.30;;;;;;;22.76;42.33;100858.16;16121335;19;130367;-63
2022/09/10 01:36:04;;;;;;;3.67;1.25;;;;;;;22.76;42.17;100860.09;16121320;19;129293;-64
2022/09/10 01:41:27;;;;;;;4.40;1.10;;;;;;;22.74;42.31;100865.94;16134090;19;131045;-65
2022/09/10 01:47:01;;;;;;;7.13;1.40;;;;;;;22.76;42.23;100862.91;16136236;19;130148;-67
2022/09/10 01:52:55;;;;;;;4.32;0.98;;;;;;;22.74;42.27;100869.59;16135314;19;129975;-65
2022/09/10 01:58:35;;;;;;;5.85;1.48;;;;;;;22.74;42.08;100866.78;16137608;19;130784;-63
2022/09/10 02:04:01;;;;;;;4.20;1.40;;;;;;;22.73;42.49;100862.34;16137200;19;130091;-64
2022/09/10 02:09:23;;;;;;;4.95;1.10;;;;;;;22.72;42.75;100863.44;16132305;19;130273;-60
2022/09/10 02:14:54;;;;;;;7.25;1.10;;;;;;;22.72;42.59;100848.66;16136574;19;130115;-60
2022/09/10 02:20:15;;;;;;;7.25;1.50;;;;;;;22.70;42.40;100860.09;16135466;19;130662;-60
2022/09/10 02:25:37;;;;;;;6.07;1.27;;;;;;;22.70;42.57;100848.94;16133431;19;129952;-60
2022/09/10 02:31:00;;;;;;;4.38;1.35;;;;;;;22.70;42.37;100851.72;16137211;19;129722;-60
2022/09/10 02:36:24;;;;;;;5.57;1.58;;;;;;;22.69;42.46;100849.22;16133438;19;129473;-59
2022/09/10 02:41:46;;;;;;;4.30;1.33;;;;;;;22.68;42.47;100859.53;16136286;19;129859;-60
2022/09/10 02:47:08;;;;;;;4.18;1.25;;;;;;;22.68;42.53;100856.72;16136611;19;129597;-60
2022/09/10 02:52:30;;;;;;;5.80;1.38;;;;;;;22.67;42.25;100871.78;16131395;19;130019;-59
2022/09/10 02:57:52;;;;;;;5.47;1.33;;;;;;;22.66;42.46;100861.75;16130268;19;129259;-60
2022/09/10 03:03:16;;;;;;;5.80;1.67;;;;;;;22.67;42.41;100870.97;16130084;19;131976;-60
2022/09/10 03:08:37;;;;;;;5.25;1.63;;;;;;;22.66;42.39;100869.28;16134444;19;128921;-60
2022/09/10 03:13:59;;;;;;;5.25;1.63;;;;;;;22.65;42.45;100874.00;16132412;19;129383;-60
2022/09/10 03:19:21;;;;;;;7.22;1.42;;;;;;;22.65;42.53;100862.84;16132282;19;129282;-59
2022/09/10 03:24:43;;;;;;;5.82;1.58;;;;;;;22.65;42.48;100859.25;16133369;19;129138;-59
2022/09/10 03:30:05;;;;;;;5.38;1.67;;;;;;;22.65;42.46;100854.50;16130307;19;129791;-59
2022/09/10 03:35:27;;;;;;;5.07;1.85;;;;;;;22.64;42.54;100865.94;16128688;19;129247;-59
2022/09/10 03:40:49;;;;;;;5.97;1.83;;;;;;;22.63;42.28;100859.53;16129464;19;130435;-59
2022/09/10 03:46:11;;;;;;;8.13;1.90;;;;;;;22.62;42.46;100857.84;16129904;19;129303;-60
2022/09/10 03:51:34;;;;;;;10.02;1.70;;;;;;;22.62;42.42;100852.28;16131448;19;129638;-60
2022/09/10 03:56:55;;;;;;;7.63;1.75;;;;;;;22.61;42.55;100850.59;16130130;19;130093;-59
2022/09/10 04:02:17;;;;;;;5.72;1.80;;;;;;;22.60;42.50;100848.91;16128727;19;128977;-59
2022/09/10 04:07:39;;;;;;;7.03;1.75;;;;;;;22.60;42.35;100851.72;16130177;19;129518;-59
2022/09/10 04:13:01;;;;;;;5.70;1.52;;;;;;;22.61;42.24;100841.38;16127738;19;129913;-59
2022/09/10 04:18:25;;;;;;;6.18;1.67;;;;;;;22.58;42.36;100840.84;16127362;19;130125;-59
2022/09/10 04:23:47;;;;;;;6.40;2.10;;;;;;;22.59;42.78;100847.25;16126905;19;130234;-60
2022/09/10 04:29:08;;;;;;;4.88;1.75;;;;;;;22.58;42.26;100856.72;16125745;19;129594;-60
2022/09/10 04:34:30;;;;;;;6.30;1.88;;;;;;;22.59;42.77;100858.38;16124791;19;130762;-59
2022/09/10 04:39:52;;;;;;;5.95;1.90;;;;;;;22.58;42.66;100868.72;16126408;19;129637;-60
2022/09/10 04:45:15;;;;;;;5.60;1.80;;;;;;;22.58;42.49;100863.16;16125719;19;129338;-60
2022/09/10 04:50:38;;;;;;;6.80;2.15;;;;;;;22.58;42.42;100865.06;16127062;19;129401;-59
2022/09/10 04:56:20;;;;;;;6.13;2.03;;;;;;;22.57;42.77;100871.75;16126585;19;130714;-60
2022/09/10 05:01:42;;;;;;;5.35;2.30;;;;;;;22.56;42.47;100870.09;16126943;19;129951;-59
2022/09/10 05:07:04;;;;;;;5.60;2.50;;;;;;;22.56;42.63;100870.09;16134231;19;129652;-59
2022/09/10 05:12:26;;;;;;;4.50;1.73;;;;;;;22.54;42.44;100864.78;16138493;19;129690;-59
2022/09/10 05:17:48;;;;;;;6.65;2.40;;;;;;;22.55;42.81;100879.56;16150040;19;129807;-61
2022/09/10 05:23:09;;;;;;;5.90;2.60;;;;;;;22.54;43.07;100877.88;16149580;19;129782;-59
2022/09/10 05:28:31;;;;;;;4.85;2.45;;;;;;;22.54;42.82;100867.59;16155675;19;130344;-59
2022/09/10 05:33:58;;;;;;;7.47;2.92;;;;;;;22.53;43.17;100871.47;16144799;19;130408;-59
2022/09/10 05:39:19;;;;;;;6.13;2.28;;;;;;;22.54;42.82;100877.88;16147697;19;129802;-59
2022/09/10 05:44:41;;;;;;;5.53;2.70;;;;;;;22.52;42.84;100875.38;16147099;19;130168;-59
2022/09/10 05:50:04;;;;;;;6.15;2.53;;;;;;;22.52;42.81;100886.53;16146099;19;130059;-60
2022/09/10 05:55:26;;;;;;;6.22;3.17;;;;;;;22.52;42.91;100880.13;16143349;19;129198;-59
2022/09/10 06:00:50;;;;;;;11.60;3.00;;;;;;;22.52;42.88;100888.50;16147336;19;130415;-59
2022/09/10 06:06:12;;;;;;;7.30;2.70;;;;;;;22.51;42.94;100896.00;16142122;19;129392;-59
2022/09/10 06:11:34;;;;;;;5.35;2.55;;;;;;;22.50;42.92;100897.13;16145379;19;130119;-59
2022/09/10 06:16:55;;;;;;;4.63;2.90;;;;;;;22.50;42.95;100901.88;16148695;19;129379;-61
2022/09/10 06:22:17;;;;;;;17.27;3.60;;;;;;;22.50;43.37;100893.50;16156596;19;129937;-63
2022/09/10 06:27:40;;;;;;;12.57;4.05;;;;;;;22.47;43.28;100905.19;16140740;19;130965;-63
2022/09/10 06:33:02;;;;;;;13.20;4.45;;;;;;;22.46;43.54;100907.16;16135038;19;129010;-63
2022/09/10 06:38:26;;;;;;;8.23;4.00;;;;;;;22.44;43.75;100907.41;16132494;19;129907;-63
2022/09/10 06:43:48;;;;;;;14.23;4.70;;;;;;;22.43;43.68;100916.88;16132290;19;129322;-64
2022/09/10 06:49:10;;;;;;;10.85;4.97;;;;;;;22.43;43.79;100922.47;16133875;19;129317;-63
2022/09/10 06:54:32;;;;;;;10.82;4.40;;;;;;;22.43;43.83;100919.66;16132521;19;129699;-63
2022/09/10 06:59:54;;;;;;;8.68;4.20;;;;;;;22.43;43.83;100930.00;16133351;19;129507;-63
2022/09/10 07:05:15;;;;;;;9.63;3.92;;;;;;;22.43;43.94;100933.59;16136569;19;129833;-63
2022/09/10 07:10:38;;;;;;;11.32;4.65;;;;;;;22.43;44.05;100936.41;16133048;19;130467;-63
2022/09/10 07:16:00;;;;;;;8.43;3.25;;;;;;;22.43;43.97;100930.00;16130928;19;129935;-63
2022/09/10 07:21:24;;;;;;;4.68;2.85;;;;;;;22.42;44.11;100940.28;16126426;19;129733;-63
2022/09/10 07:26:46;;;;;;;10.02;3.20;;;;;;;22.42;44.13;100948.66;16130301;19;130289;-64
2022/09/10 07:32:07;;;;;;;11.52;2.90;;;;;;;22.41;43.92;100958.13;16128757;19;129054;-63
2022/09/10 07:37:34;;;;;;;5.22;2.40;;;;;;;22.41;43.78;100963.69;16128677;19;129713;-63
2022/09/10 07:42:56;;;;;;;12.15;2.50;;;;;;;22.42;43.79;100973.75;16130573;19;130154;-63
2022/09/10 07:48:18;;;;;;;9.65;2.47;;;;;;;22.41;43.50;100971.22;16130408;19;129321;-63
2022/09/10 07:53:39;;;;;;;12.10;2.50;;;;;;;22.40;43.69;100978.75;16130382;19;129674;-63
2022/09/10 07:59:12;;;;;;;16.60;3.13;;;;;;;22.41;43.80;100986.00;16129325;19;129827;-63
2022/09/10 08:04:36;;;;;;;13.00;3.03;;;;;;;22.41;44.12;100991.56;16129601;19;130334;-63
2022/09/10 08:09:58;;;;;;;5.88;2.00;;;;;;;22.40;43.73;100989.88;16129728;19;129483;-63
2022/09/10 08:15:19;;;;;;;8.40;2.50;;;;;;;22.42;43.99;101000.78;16128525;19;129746;-63
2022/09/10 08:20:41;;;;;;;8.63;2.30;;;;;;;22.42;43.83;101009.97;16129322;19;129324;-63
2022/09/10 08:26:05;;;;;;;12.50;2.40;;;;;;;22.42;43.89;101007.19;16126744;19;131009;-63
2022/09/10 08:31:27;;;;;;;9.15;2.70;;;;;;;22.41;44.11;101025.03;16124328;19;129672;-63
2022/09/10 08:36:49;;;;;;;16.95;2.50;;;;;;;22.42;44.50;101026.69;16124589;19;130714;-63
2022/09/10 08:42:26;;;;;;;10.45;2.47;;;;;;;22.43;43.96;101039.53;16127990;19;129586;-61
2022/09/10 08:48:01;;;;;;;8.80;2.20;;;;;;;22.43;44.45;101039.53;16129797;19;130209;-64
2022/09/10 08:53:24;;;;;;;11.77;2.70;;;;;;;22.41;43.99;101041.75;16143214;19;129502;-63
2022/09/10 08:58:49;;;;;;;8.80;2.30;;;;;;;22.42;44.65;101043.44;16143806;19;129340;-63
2022/09/10 09:04:27;;;;;;;8.10;2.27;;;;;;;22.43;44.71;101039.53;16140705;19;129302;-61
2022/09/10 09:09:50;;;;;;;7.72;2.03;;;;;;;22.42;44.40;101043.44;16138948;19;129557;-63
2022/09/10 09:15:18;;;;;;;13.30;2.72;;;;;;;22.42;44.69;101050.97;16137837;19;130356;-64
2022/09/10 09:20:46;;;;;;;11.15;2.55;;;;;;;22.43;44.67;101053.47;16139889;19;129349;-63
2022/09/10 09:26:12;;;;;;;10.63;2.70;;;;;;;22.42;44.78;101054.56;16137952;19;130729;-63
2022/09/10 09:31:39;;;;;;;;;;;;;;;22.41;45.08;101071.59;16139128;19;129606;-63
2022/09/10 09:37:15;;;;;;;14.73;2.72;;;;;;;22.44;45.36;101066.31;16138880;19;129556;-63
2022/09/10 09:42:46;;;;;;;13.05;3.53;;;;;;;22.39;45.54;101060.72;16140943;19;129772;-63
2022/09/10 09:48:12;;;;;;;9.77;3.28;;;;;;;22.36;45.60;101069.59;16136349;19;129664;-63
2022/09/10 09:53:34;;;;;;;9.75;3.70;;;;;;;22.35;46.07;101081.84;16136788;19;129530;-63
2022/09/10 09:59:07;;;;;;;13.13;4.75;;;;;;;22.35;46.08;101084.66;16137288;19;130498;-63
2022/09/10 10:04:35;;;;;;;9.88;4.13;;;;;;;22.30;46.11;101087.38;16137635;19;129570;-63
2022/09/10 10:10:06;;;;;;;15.38;4.13;;;;;;;22.31;46.16;101079.88;16136985;19;130255;-64
2022/09/10 10:15:41;;;;;;;8.52;3.70;;;;;;;22.30;45.89;101084.59;16137786;19;129559;-63
2022/09/10 10:21:09;;;;;;;9.73;4.10;;;;;;;22.31;46.27;101077.91;16136878;19;129790;-63
2022/09/10 10:26:35;;;;;;;8.23;5.05;;;;;;;22.32;46.67;101076.81;16136927;19;129423;-63
2022/09/10 10:31:56;;;;;;;9.38;4.75;;;;;;;22.32;46.52;101087.97;16134438;19;129782;-63
2022/09/10 10:37:45;;;;;;;10.52;5.03;;;;;;;22.34;46.64;101091.31;16137120;19;130628;-63
2022/09/10 10:43:37;;;;;;;9.95;4.55;;;;;;;22.33;46.86;101100.78;16133847;19;130235;-64
2022/09/10 10:49:26;;;;;;;8.15;3.35;;;;;;;22.33;46.54;101109.16;16135291;19;131467;-59
2022/09/10 10:55:08;;;;;;;12.50;3.92;;;;;;;22.33;46.87;101106.38;16132553;19;130033;-53
2022/09/10 11:00:42;;;;;;;10.73;3.60;;;;;;;22.35;46.30;101109.72;16132722;19;130766;-63
2022/09/10 11:06:19;;;;;;;11.65;3.50;;;;;;;22.39;47.01;101119.25;16132897;19;129676;-59
2022/09/10 11:12:06;;;;;;;8.32;2.83;;;;;;;22.40;46.38;101115.31;16133220;19;129520;-64
2022/09/10 11:17:46;;;;;;;10.68;2.78;;;;;;;22.44;46.78;101121.22;16118391;19;129260;-64
2022/09/10 11:23:26;;;;;;;8.82;2.40;;;;;;;22.46;46.43;101121.81;16122380;19;130198;-66
2022/09/10 11:29:22;;;;;;;11.95;2.45;;;;;;;22.47;46.34;101100.34;16125643;19;129593;-61
2022/09/10 11:35:08;;;;;;;9.02;2.25;;;;;;;22.50;46.49;101105.38;16122042;19;130434;-56
2022/09/10 11:41:05;;;;;;;10.00;2.47;;;;;;;22.50;46.49;101108.16;16124047;19;130009;-62
2022/09/10 11:46:36;;;;;;;;;;;;;;;22.50;46.22;101105.38;16122623;19;130753;-62
2022/09/10 11:52:01;;;;;;;8.18;2.22;;;;;;;22.55;46.18;101113.75;16128017;19;130627;-63
2022/09/10 11:58:18;;;;;;;7.95;2.67;;;;;;;22.55;46.05;101109.03;16130175;19;129445;-63
2022/09/10 12:04:16;;;;;;;17.10;3.17;;;;;;;22.54;46.74;101112.94;16118177;19;128985;-63
2022/09/10 12:09:49;;;;;;;10.07;2.80;;;;;;;22.51;46.47;101129.38;16122847;19;129735;-63
2022/09/10 12:15:20;;;;;;;13.35;2.75;;;;;;;22.50;46.49;101139.66;16118678;19;129065;-64
2022/09/10 12:20:55;;;;;;;11.38;2.30;;;;;;;22.53;46.48;101138.28;16120538;19;129503;-62
2022/09/10 12:26:21;;;;;;;12.23;2.50;;;;;;;22.51;46.84;101138.56;16119632;19;130148;-61
2022/09/10 12:32:25;;;;;;;9.15;2.45;;;;;;;22.54;46.55;101151.97;16118612;19;129230;-59
2022/09/10 12:37:47;;;;;;;8.23;2.13;;;;;;;22.56;46.65;101144.19;16125748;19;130095;-61
2022/09/10 12:43:42;;;;;;;5.85;2.35;;;;;;;22.59;46.80;101156.72;16127528;19;129806;-63
2022/09/10 12:49:12;;;;;;;5.35;2.08;;;;;;;22.60;46.89;101155.63;16119473;19;129261;-62
2022/09/10 12:55:00;;;;;;;9.80;2.35;;;;;;;22.61;47.03;101140.59;16116051;19;129473;-63
2022/09/10 13:00:24;;;;;;;10.48;2.13;;;;;;;22.61;46.82;101146.16;16116131;19;129649;-63
2022/09/10 13:05:50;;;;;;;8.23;1.80;;;;;;;22.64;46.60;101148.41;16114751;19;129267;-64
2022/09/10 13:11:23;;;;;;;9.15;2.25;;;;;;;22.68;46.49;101152.31;16117084;19;132274;-64
2022/09/10 13:16:45;;;;;;;5.32;2.00;;;;;;;22.66;46.89;101154.53;16115130;19;129300;-62
2022/09/10 13:22:30;;;;;;;6.47;2.03;;;;;;;22.69;46.66;101140.06;16117792;19;129489;-66
2022/09/10 13:27:52;;;;;;;7.72;1.70;;;;;;;22.70;46.72;101152.91;16125731;19;129525;-62
2022/09/10 13:33:16;;;;;;;6.18;1.83;;;;;;;22.71;46.50;101150.94;16125182;19;129553;-63
2022/09/10 13:39:25;;;;;;;9.73;1.70;;;;;;;22.73;45.99;101154.31;16140294;19;130242;-64
2022/09/10 13:45:20;;;;;;;5.68;1.50;;;;;;;22.71;45.26;101157.38;16138138;19;128969;-64
2022/09/10 13:51:07;;;;;;;4.60;1.50;;;;;;;22.67;45.49;101172.97;16139102;19;129609;-64
2022/09/10 13:56:31;;;;;;;7.35;1.52;;;;;;;22.64;45.65;101178.22;16136697;19;129358;-64
2022/09/10 14:01:54;;;;;;;4.93;1.38;;;;;;;22.62;45.78;101195.25;16138900;19;129119;-64
2022/09/10 14:07:20;;;;;;;4.68;1.40;;;;;;;22.60;45.98;101189.09;16136652;19;130016;-64
2022/09/10 14:12:42;;;;;;;7.63;1.48;;;;;;;22.59;46.13;101198.56;16138603;19;129514;-64
2022/09/10 14:18:04;;;;;;;2.15;0.90;;;;;;;22.61;46.15;101193.56;16139312;19;129381;-64
2022/09/10 14:23:28;;;;;;;4.13;1.20;;;;;;;22.64;45.94;101189.38;16133857;19;129465;-64
2022/09/10 14:29:02;;;;;;;2.47;1.10;;;;;;;22.66;45.70;101187.19;16135710;19;129722;-64
2022/09/10 14:34:31;;;;;;;4.07;1.40;;;;;;;22.66;45.93;101182.44;16134061;19;129626;-63
2022/09/10 14:39:55;;;;;;;4.47;1.55;;;;;;;22.66;46.08;101193.59;16133571;19;130524;-63
2022/09/10 14:45:48;;;;;;;2.72;1.30;;;;;;;22.69;46.07;101198.63;16130268;19;130044;-64
2022/09/10 14:51:24;;;;;;;3.88;1.23;;;;;;;22.71;46.06;101196.41;16131029;19;129347;-64
2022/09/10 14:56:47;;;;;;;6.22;1.02;;;;;;;22.69;46.18;101201.41;16131686;19;129917;-63
2022/09/10 15:02:14;;;;;;;11.30;1.38;;;;;;;22.71;45.83;101196.41;16133558;19;129531;-64
2022/09/10 15:07:36;;;;;;;4.43;1.42;;;;;;;22.71;45.85;101207.56;16132008;19;129597;-64
2022/09/10 15:12:58;;;;;;;4.53;1.30;;;;;;;22.73;45.99;101212.88;16122583;19;129961;-67
2022/09/10 15:18:21;;;;;;;6.88;1.10;;;;;;;22.73;46.15;101221.25;16132368;19;132843;-64
2022/09/10 15:23:43;;;;;;;9.15;1.05;;;;;;;22.73;46.09;101233.25;16136444;19;129245;-64
2022/09/10 15:29:05;;;;;;;5.15;1.10;;;;;;;22.72;46.20;101234.38;16132871;19;129645;-64
2022/09/10 15:34:27;;;;;;;8.85;1.65;;;;;;;22.75;46.20;101238.56;16129522;19;130936;-64
2022/09/10 15:39:50;;;;;;;7.72;1.50;;;;;;;22.78;46.06;101239.97;16131107;19;129170;-64
2022/09/10 15:45:12;;;;;;;8.90;1.80;;;;;;;22.79;45.84;101227.69;16130155;19;129054;-63
2022/09/10 15:50:36;;;;;;;7.18;1.38;;;;;;;22.80;46.09;101240.53;16131216;19;129070;-64
2022/09/10 15:56:08;;;;;;;4.22;1.58;;;;;;;22.81;45.77;101250.59;16130390;19;129301;-64
2022/09/10 16:01:31;;;;;;;5.40;1.70;;;;;;;22.81;46.04;101253.38;16130450;19;130568;-64
2022/09/10 16:06:52;;;;;;;7.20;1.60;;;;;;;22.80;45.89;101251.69;16128428;19;129451;-64
2022/09/10 16:12:16;;;;;;;5.05;1.27;;;;;;;22.80;45.69;101246.13;16129537;19;129619;-63
2022/09/10 16:17:37;;;;;;;3.40;1.05;;;;;;;22.79;45.85;101233.28;16130591;19;129477;-64
2022/09/10 16:22:59;;;;;;;5.68;1.35;;;;;;;22.79;45.72;101247.22;16130627;19;130009;-64
2022/09/10 16:28:21;;;;;;;5.65;1.30;;;;;;;22.79;45.84;101242.50;16125573;19;128947;-64
2022/09/10 16:33:44;;;;;;;3.92;1.33;;;;;;;22.78;45.81;101256.69;16128642;19;129635;-64
2022/09/10 16:39:11;;;;;;;2.78;1.10;;;;;;;22.74;46.01;101265.63;16124348;19;129404;-66
2022/09/10 16:44:33;;;;;;;3.13;1.05;;;;;;;22.73;45.92;101274.22;16127218;19;129857;-73
2022/09/10 16:49:55;;;;;;;2.55;0.80;;;;;;;22.70;46.06;101270.03;16129851;19;130016;-67
2022/09/10 16:55:16;;;;;;;6.60;1.10;;;;;;;22.72;45.93;101286.50;16125400;19;129649;-68
2022/09/10 17:00:41;;;;;;;6.93;1.10;;;;;;;22.71;46.06;101294.03;16126478;19;129469;-64
2022/09/10 17:06:03;;;;;;;4.70;1.10;;;;;;;22.71;46.00;101301.53;16125742;19;130130;-68
2022/09/10 17:11:30;;;;;;;3.40;1.02;;;;;;;22.71;45.59;101313.56;16138973;19;129966;-63
2022/09/10 17:16:52;;;;;;;5.13;1.00;;;;;;;22.71;45.76;101319.13;16142397;19;129355;-74
2022/09/10 17:22:13;;;;;;;2.33;0.80;;;;;;;22.70;46.06;101325.00;16142324;19;129427;-66
2022/09/10 17:27:35;;;;;;;2.55;1.00;;;;;;;22.69;45.79;101328.88;16143929;19;135237;-69
2022/09/10 17:32:58;;;;;;;2.38;0.90;;;;;;;22.68;45.83;101339.19;16141573;19;129811;-62
2022/09/10 17:38:20;;;;;;;4.82;0.90;;;;;;;22.66;45.63;101344.19;16140803;19;129473;-66
2022/09/10 17:43:43;;;;;;;2.80;0.90;;;;;;;22.67;46.17;101345.88;16139554;19;129776;-61
2022/09/10 17:49:05;;;;;;;3.00;0.82;;;;;;;22.67;46.03;101351.44;16136325;19;129569;-63
2022/09/10 17:54:26;;;;;;;6.32;0.88;;;;;;;22.69;46.00;101353.97;16130529;19;130374;-62
2022/09/10 17:59:48;;;;;;;4.18;0.60;;;;;;;22.69;45.93;101365.13;16133905;19;129594;-63
2022/09/10 18:05:10;;;;;;;6.45;0.77;;;;;;;22.68;45.82;101367.06;16136607;19;129626;-63
2022/09/10 18:10:33;;;;;;;1.27;0.63;;;;;;;22.65;45.75;101370.38;16135640;19;130844;-63
2022/09/10 18:15:55;;;;;;;3.42;0.80;;;;;;;22.63;45.76;101378.19;16135968;19;129510;-65
2022/09/10 18:21:19;;;;;;;1.75;0.90;;;;;;;22.63;45.62;101392.13;16135302;19;129448;-63
2022/09/10 18:26:43;;;;;;;1.92;0.73;;;;;;;22.62;45.93;101395.16;16136308;19;130172;-63
2022/09/10 18:32:06;;;;;;;1.67;0.50;;;;;;;22.59;45.60;101404.91;16137228;19;129641;-63
2022/09/10 18:37:28;;;;;;;2.85;0.95;;;;;;;22.58;45.42;101419.94;16135414;19;129469;-63
2022/09/10 18:42:51;;;;;;;14.48;1.88;;;;;;;22.56;45.74;101419.38;16134062;19;130237;-67
2022/09/10 18:48:12;;;;;;;10.85;1.50;;;;;;;22.55;45.88;101417.69;16134039;19;129190;-65
2022/09/10 18:53:35;;;;;;;13.15;1.80;;;;;;;22.55;45.67;101428.84;16133738;19;130925;-63
2022/09/10 18:59:04;;;;;;;12.13;1.60;;;;;;;22.54;45.78;101446.66;16134050;19;129782;-64
2022/09/10 19:04:28;;;;;;;8.27;1.23;;;;;;;22.53;45.96;101448.63;16129020;19;129892;-62
2022/09/10 19:09:49;;;;;;;6.80;1.20;;;;;;;22.51;45.94;101461.16;16133781;19;129685;-62
2022/09/10 19:15:11;;;;;;;12.30;1.20;;;;;;;22.50;45.65;101474.22;16131566;19;129107;-62
2022/09/10 19:20:35;;;;;;;9.30;1.35;;;;;;;22.51;45.60;101483.44;16134272;19;130017;-62
2022/09/10 19:25:57;;;;;;;5.72;1.00;;;;;;;22.49;45.69;101488.44;16132561;19;129863;-62
2022/09/10 19:31:19;;;;;;;4.15;0.98;;;;;;;22.48;45.73;101503.47;16129485;19;129272;-62
2022/09/10 19:36:42;;;;;;;3.00;0.90;;;;;;;22.47;45.56;101505.41;16131939;19;130410;-60
2022/09/10 19:42:05;;;;;;;12.23;1.27;;;;;;;22.46;45.89;101503.75;16132703;19;129214;-62
2022/09/10 19:47:27;;;;;;;5.63;1.27;;;;;;;22.45;45.90;101521.56;16129092;19;129534;-61
2022/09/10 19:52:49;;;;;;;4.32;1.17;;;;;;;22.44;45.69;101531.88;16131754;19;129509;-62
2022/09/10 19:58:11;;;;;;;5.85;1.00;;;;;;;22.43;45.77;101526.56;16130332;19;129178;-61
2022/09/10 20:03:35;;;;;;;7.15;1.52;;;;;;;22.43;45.61;101529.34;16131176;19;129832;-62
2022/09/10 20:08:56;;;;;;;6.95;1.10;;;;;;;22.41;45.77;101537.94;16131572;19;128914;-62
2022/09/10 20:14:19;;;;;;;4.47;1.10;;;;;;;22.41;45.43;101543.53;16130588;19;129679;-62
2022/09/10 20:19:40;;;;;;;3.03;1.25;;;;;;;22.41;45.34;101542.69;16129896;19;131176;-62
2022/09/10 20:25:02;;;;;;;4.28;1.08;;;;;;;22.40;45.75;101547.41;16128837;19;129512;-62
2022/09/10 20:30:24;;;;;;;4.18;1.10;;;;;;;22.39;45.58;101551.34;16127778;19;129314;-62
2022/09/10 20:35:45;;;;;;;2.72;0.90;;;;;;;22.37;45.44;101552.66;16126346;19;129094;-62
2022/09/10 20:41:08;;;;;;;5.18;0.80;;;;;;;22.36;45.59;101557.41;16125299;19;129663;-62
2022/09/10 20:46:30;;;;;;;4.72;0.98;;;;;;;22.37;45.53;101564.69;16124555;19;129441;-61
2022/09/10 20:51:52;;;;;;;4.00;0.82;;;;;;;22.36;45.64;101568.56;16127260;19;129487;-61
2022/09/10 20:57:15;;;;;;;5.75;0.90;;;;;;;22.36;45.61;101573.28;16118986;19;130347;-60
2022/09/10 21:02:37;;;;;;;7.03;1.08;;;;;;;22.37;45.53;101577.75;16124312;19;129872;-64
2022/09/10 21:07:59;;;;;;;10.80;1.25;;;;;;;22.38;45.96;101577.53;16127518;19;129599;-63
2022/09/10 21:13:21;;;;;;;6.35;1.25;;;;;;;22.41;46.20;101584.50;16124117;19;129710;-61
2022/09/10 21:18:47;;;;;;;10.85;1.30;;;;;;;22.44;46.02;101581.22;16122950;19;129744;-58
2022/09/10 21:24:21;;;;;;;11.23;1.30;;;;;;;22.46;46.32;101580.94;16121740;19;129519;-64
2022/09/10 21:29:43;;;;;;;11.35;1.45;;;;;;;22.47;45.97;101579.84;16123736;19;129487;-64
2022/09/10 21:35:06;;;;;;;19.08;2.33;;;;;;;22.44;45.70;101584.84;16123930;19;129278;-64
2022/09/10 21:40:27;;;;;;;14.40;1.30;;;;;;;22.44;45.91;101590.41;16120547;19;129254;-64
2022/09/10 21:45:49;;;;;;;6.25;0.90;;;;;;;22.42;46.00;101594.56;16122276;19;130301;-64
2022/09/10 21:51:14;;;;;;;6.80;1.08;;;;;;;22.40;45.93;101600.38;16120880;19;129387;-63
2022/09/10 21:56:36;;;;;;;7.63;1.20;;;;;;;22.39;45.65;101601.50;16132060;19;129515;-65
2022/09/10 22:01:57;;;;;;;8.98;0.98;;;;;;;22.37;45.75;101605.63;16138297;19;129921;-64
2022/09/10 22:07:19;;;;;;;3.15;1.00;;;;;;;22.35;45.98;101600.31;16138207;19;129942;-64
2022/09/10 22:12:41;;;;;;;6.38;1.30;;;;;;;22.34;45.91;101609.78;16135724;19;130809;-64
2022/09/10 22:18:03;;;;;;;6.88;1.02;;;;;;;22.34;45.88;101618.16;16135271;19;129634;-64
2022/09/10 22:23:33;;;;;;;7.45;1.13;;;;;;;22.33;46.12;101613.66;16134848;19;131609;-64
2022/09/10 22:28:58;;;;;;;3.95;0.90;;;;;;;22.31;45.91;101627.00;16135569;19;129256;-64
2022/09/10 22:34:19;;;;;;;3.00;1.00;;;;;;;22.29;46.07;101618.06;16135835;19;129579;-64
2022/09/10 22:39:41;;;;;;;2.95;1.00;;;;;;;22.29;45.80;101634.78;16134240;19;129886;-65
2022/09/10 22:45:03;;;;;;;2.92;0.82;;;;;;;22.29;45.86;101637.56;16134044;19;129978;-64
2022/09/10 22:50:25;;;;;;;4.63;1.00;;;;;;;22.27;45.75;101632.25;16135646;19;129771;-64
2022/09/10 22:55:48;;;;;;;3.20;0.98;;;;;;;22.26;45.87;101632.53;16135531;19;130532;-64
2022/09/10 23:01:14;;;;;;;4.95;1.20;;;;;;;22.26;45.80;101638.09;16135407;19;130228;-64
2022/09/10 23:06:38;;;;;;;6.63;1.33;;;;;;;22.25;45.78;101640.03;16129327;19;129212;-64
2022/09/10 23:12:00;;;;;;;2.95;1.05;;;;;;;22.25;45.44;101644.75;16134650;19;129151;-64
2022/09/10 23:17:21;;;;;;;4.15;1.15;;;;;;;22.23;45.42;101650.56;16129458;19;129380;-64
2022/09/10 23:22:43;;;;;;;3.30;1.05;;;;;;;22.23;45.47;101655.31;16134640;19;129555;-64
2022/09/10 23:28:05;;;;;;;2.80;0.98;;;;;;;22.22;45.77;101657.25;16131072;19;129168;-64
2022/09/10 23:33:27;;;;;;;2.20;0.80;;;;;;;22.22;45.50;101667.56;16128967;19;129052;-64
2022/09/10 23:38:49;;;;;;;3.88;0.73;;;;;;;22.22;45.69;101667.56;16128561;19;129317;-64
2022/09/10 23:44:11;;;;;;;3.00;1.20;;;;;;;22.21;45.45;101671.44;16128449;19;130358;-64
2022/09/10 23:49:33;;;;;;;3.50;1.00;;;;;;;22.21;45.51;101674.22;16128969;19;129477;-64
2022/09/10 23:54:55;;;;;;;3.58;0.93;;;;;;;22.19;45.47;101680.03;16128044;19;129466;-64
